sensor_id;sensor_type;location;lat;lon;timestamp;P1;durP1;ratioP1;P2;durP2;ratioP2
26696;SDS011;14312;52.614;13.496;2022-11-20T00:02:11;6.83;;;6.20;;
26696;SDS011;14312;52.614;13.496;2022-11-20T00:04:57;6.33;;;5.47;;
26696;SDS011;14312;52.614;13.496;2022-11-20T00:07:43;9.63;;;7.83;;
26696;SDS011;14312;52.614;13.496;2022-11-20T00:10:32;8.50;;;7.10;;
26696;SDS011;14312;52.614;13.496;2022-11-20T00:13:17;9.90;;;7.33;;
26696;SDS011;14312;52.614;13.496;2022-11-20T00:16:06;10.53;;;7.07;;
26696;SDS011;14312;52.614;13.496;2022-11-20T00:18:59;10.33;;;7.87;;
26696;SDS011;14312;52.614;13.496;2022-11-20T00:21:45;10.97;;;8.00;;
26696;SDS011;14312;52.614;13.496;2022-11-20T00:24:31;9.23;;;7.23;;
26696;SDS011;14312;52.614;13.496;2022-11-20T00:27:16;10.00;;;6.77;;
26696;SDS011;14312;52.614;13.496;2022-11-20T00:30:03;9.17;;;6.67;;
26696;SDS011;14312;52.614;13.496;2022-11-20T00:32:49;7.50;;;6.70;;
26696;SDS011;14312;52.614;13.496;2022-11-20T00:35:35;9.07;;;7.07;;
26696;SDS011;14312;52.614;13.496;2022-11-20T00:38:21;7.87;;;6.73;;
26696;SDS011;14312;52.614;13.496;2022-11-20T00:41:08;8.03;;;6.47;;
26696;SDS011;14312;52.614;13.496;2022-11-20T00:43:55;7.27;;;6.57;;
26696;SDS011;14312;52.614;13.496;2022-11-20T00:46:41;8.80;;;7.10;;
26696;SDS011;14312;52.614;13.496;2022-11-20T00:49:27;10.00;;;7.23;;
26696;SDS011;14312;52.614;13.496;2022-11-20T00:52:13;8.17;;;6.87;;
26696;SDS011;14312;52.614;13.496;2022-11-20T00:54:59;9.13;;;7.00;;
26696;SDS011;14312;52.614;13.496;2022-11-20T00:57:45;8.93;;;7.07;;
26696;SDS011;14312;52.614;13.496;2022-11-20T01:00:31;7.97;;;6.87;;
26696;SDS011;14312;52.614;13.496;2022-11-20T01:03:17;9.37;;;7.60;;
26696;SDS011;14312;52.614;13.496;2022-11-20T01:06:05;8.87;;;7.20;;
26696;SDS011;14312;52.614;13.496;2022-11-20T01:08:53;7.80;;;7.00;;
26696;SDS011;14312;52.614;13.496;2022-11-20T01:11:42;9.30;;;7.47;;
26696;SDS011;14312;52.614;13.496;2022-11-20T01:14:29;9.20;;;6.87;;
26696;SDS011;14312;52.614;13.496;2022-11-20T01:17:14;8.70;;;6.60;;
26696;SDS011;14312;52.614;13.496;2022-11-20T01:20:00;8.33;;;6.23;;
26696;SDS011;14312;52.614;13.496;2022-11-20T01:22:46;9.87;;;7.53;;
26696;SDS011;14312;52.614;13.496;2022-11-20T01:25:32;10.17;;;7.60;;
26696;SDS011;14312;52.614;13.496;2022-11-20T01:28:19;7.73;;;6.30;;
26696;SDS011;14312;52.614;13.496;2022-11-20T01:31:11;7.40;;;6.07;;
26696;SDS011;14312;52.614;13.496;2022-11-20T01:34:05;9.23;;;6.93;;
26696;SDS011;14312;52.614;13.496;2022-11-20T01:36:54;8.37;;;7.10;;
26696;SDS011;14312;52.614;13.496;2022-11-20T01:39:40;8.77;;;6.03;;
26696;SDS011;14312;52.614;13.496;2022-11-20T01:42:26;9.27;;;7.43;;
26696;SDS011;14312;52.614;13.496;2022-11-20T01:49:03;8.73;;;6.93;;
26696;SDS011;14312;52.614;13.496;2022-11-20T01:52:00;8.60;;;6.90;;
26696;SDS011;14312;52.614;13.496;2022-11-20T01:54:52;9.50;;;7.07;;
26696;SDS011;14312;52.614;13.496;2022-11-20T01:58:00;7.90;;;6.30;;
26696;SDS011;14312;52.614;13.496;2022-11-20T02:00:48;9.63;;;7.23;;
26696;SDS011;14312;52.614;13.496;2022-11-20T02:03:34;10.27;;;7.63;;
26696;SDS011;14312;52.614;13.496;2022-11-20T02:06:25;9.17;;;7.30;;
26696;SDS011;14312;52.614;13.496;2022-11-20T02:09:14;7.67;;;6.00;;
26696;SDS011;14312;52.614;13.496;2022-11-20T02:12:01;10.03;;;7.00;;
26696;SDS011;14312;52.614;13.496;2022-11-20T02:14:48;12.07;;;8.10;;
26696;SDS011;14312;52.614;13.496;2022-11-20T02:17:34;10.50;;;6.97;;
26696;SDS011;14312;52.614;13.496;2022-11-20T02:20:20;8.73;;;6.87;;
26696;SDS011;14312;52.614;13.496;2022-11-20T02:23:12;9.03;;;6.70;;
26696;SDS011;14312;52.614;13.496;2022-11-20T02:26:09;9.70;;;8.23;;
26696;SDS011;14312;52.614;13.496;2022-11-20T02:28:58;10.20;;;7.77;;
26696;SDS011;14312;52.614;13.496;2022-11-20T02:31:49;9.17;;;7.53;;
26696;SDS011;14312;52.614;13.496;2022-11-20T02:34:35;9.03;;;7.93;;
26696;SDS011;14312;52.614;13.496;2022-11-20T02:37:21;7.83;;;6.97;;
26696;SDS011;14312;52.614;13.496;2022-11-20T02:40:08;9.13;;;7.43;;
26696;SDS011;14312;52.614;13.496;2022-11-20T02:42:55;8.97;;;7.07;;
26696;SDS011;14312;52.614;13.496;2022-11-20T02:45:41;10.00;;;7.50;;
26696;SDS011;14312;52.614;13.496;2022-11-20T02:48:27;9.50;;;8.00;;
26696;SDS011;14312;52.614;13.496;2022-11-20T02:51:13;8.43;;;6.87;;
26696;SDS011;14312;52.614;13.496;2022-11-20T02:53:59;10.03;;;7.83;;
26696;SDS011;14312;52.614;13.496;2022-11-20T02:56:45;10.07;;;7.50;;
26696;SDS011;14312;52.614;13.496;2022-11-20T02:59:31;8.43;;;7.43;;
26696;SDS011;14312;52.614;13.496;2022-11-20T03:02:16;10.67;;;8.07;;
26696;SDS011;14312;52.614;13.496;2022-11-20T03:05:02;7.67;;;6.70;;
26696;SDS011;14312;52.614;13.496;2022-11-20T03:07:48;7.97;;;6.93;;
26696;SDS011;14312;52.614;13.496;2022-11-20T03:10:34;10.00;;;7.43;;
26696;SDS011;14312;52.614;13.496;2022-11-20T03:13:20;10.00;;;8.63;;
26696;SDS011;14312;52.614;13.496;2022-11-20T03:16:10;12.03;;;8.93;;
26696;SDS011;14312;52.614;13.496;2022-11-20T03:19:00;10.20;;;8.83;;
26696;SDS011;14312;52.614;13.496;2022-11-20T03:21:45;10.17;;;7.57;;
26696;SDS011;14312;52.614;13.496;2022-11-20T03:24:31;10.83;;;8.40;;
26696;SDS011;14312;52.614;13.496;2022-11-20T03:27:17;9.20;;;7.40;;
26696;SDS011;14312;52.614;13.496;2022-11-20T03:30:03;10.87;;;7.10;;
26696;SDS011;14312;52.614;13.496;2022-11-20T03:32:52;9.67;;;7.17;;
26696;SDS011;14312;52.614;13.496;2022-11-20T03:35:39;10.23;;;6.83;;
26696;SDS011;14312;52.614;13.496;2022-11-20T03:38:24;11.63;;;8.63;;
26696;SDS011;14312;52.614;13.496;2022-11-20T03:41:12;10.97;;;7.83;;
26696;SDS011;14312;52.614;13.496;2022-11-20T03:44:00;8.53;;;6.70;;
26696;SDS011;14312;52.614;13.496;2022-11-20T03:46:48;10.17;;;7.73;;
26696;SDS011;14312;52.614;13.496;2022-11-20T03:49:34;10.03;;;7.93;;
26696;SDS011;14312;52.614;13.496;2022-11-20T03:52:20;9.73;;;7.93;;
26696;SDS011;14312;52.614;13.496;2022-11-20T03:55:06;10.03;;;7.83;;
26696;SDS011;14312;52.614;13.496;2022-11-20T03:57:52;9.00;;;7.17;;
26696;SDS011;14312;52.614;13.496;2022-11-20T04:00:38;10.27;;;8.40;;
26696;SDS011;14312;52.614;13.496;2022-11-20T04:03:26;9.80;;;7.87;;
26696;SDS011;14312;52.614;13.496;2022-11-20T04:06:17;10.67;;;8.73;;
26696;SDS011;14312;52.614;13.496;2022-11-20T04:09:05;10.13;;;7.93;;
26696;SDS011;14312;52.614;13.496;2022-11-20T04:11:51;10.13;;;7.73;;
26696;SDS011;14312;52.614;13.496;2022-11-20T04:14:36;8.90;;;7.50;;
26696;SDS011;14312;52.614;13.496;2022-11-20T04:17:22;11.10;;;8.90;;
26696;SDS011;14312;52.614;13.496;2022-11-20T04:20:08;11.43;;;8.73;;
26696;SDS011;14312;52.614;13.496;2022-11-20T04:22:56;8.57;;;7.40;;
26696;SDS011;14312;52.614;13.496;2022-11-20T04:25:41;10.77;;;8.37;;
26696;SDS011;14312;52.614;13.496;2022-11-20T04:28:27;11.20;;;9.03;;
26696;SDS011;14312;52.614;13.496;2022-11-20T04:31:21;11.27;;;8.67;;
26696;SDS011;14312;52.614;13.496;2022-11-20T04:34:10;11.67;;;8.77;;
26696;SDS011;14312;52.614;13.496;2022-11-20T04:36:57;9.70;;;8.33;;
26696;SDS011;14312;52.614;13.496;2022-11-20T04:39:43;12.17;;;10.07;;
26696;SDS011;14312;52.614;13.496;2022-11-20T04:42:29;9.43;;;8.20;;
26696;SDS011;14312;52.614;13.496;2022-11-20T04:45:15;11.13;;;9.53;;
26696;SDS011;14312;52.614;13.496;2022-11-20T04:48:01;11.20;;;9.90;;
26696;SDS011;14312;52.614;13.496;2022-11-20T04:50:51;12.60;;;9.50;;
26696;SDS011;14312;52.614;13.496;2022-11-20T04:53:37;11.47;;;8.07;;
26696;SDS011;14312;52.614;13.496;2022-11-20T04:56:23;11.90;;;8.90;;
26696;SDS011;14312;52.614;13.496;2022-11-20T04:59:09;9.97;;;8.33;;
26696;SDS011;14312;52.614;13.496;2022-11-20T05:01:55;11.90;;;8.43;;
26696;SDS011;14312;52.614;13.496;2022-11-20T05:04:40;12.20;;;9.20;;
26696;SDS011;14312;52.614;13.496;2022-11-20T05:07:27;10.37;;;8.57;;
26696;SDS011;14312;52.614;13.496;2022-11-20T05:10:13;9.40;;;8.03;;
26696;SDS011;14312;52.614;13.496;2022-11-20T05:12:59;9.10;;;7.97;;
26696;SDS011;14312;52.614;13.496;2022-11-20T05:15:45;9.33;;;7.67;;
26696;SDS011;14312;52.614;13.496;2022-11-20T05:18:33;9.47;;;8.20;;
26696;SDS011;14312;52.614;13.496;2022-11-20T05:21:20;10.50;;;7.77;;
26696;SDS011;14312;52.614;13.496;2022-11-20T05:24:06;9.07;;;7.13;;
26696;SDS011;14312;52.614;13.496;2022-11-20T05:26:52;9.20;;;7.73;;
26696;SDS011;14312;52.614;13.496;2022-11-20T05:29:38;9.87;;;7.43;;
26696;SDS011;14312;52.614;13.496;2022-11-20T05:32:25;12.23;;;7.57;;
26696;SDS011;14312;52.614;13.496;2022-11-20T12:59:55;12.73;;;10.50;;
26696;SDS011;14312;52.614;13.496;2022-11-20T13:08:54;10.25;;;9.10;;
26696;SDS011;14312;52.614;13.496;2022-11-20T13:18:07;8.18;;;7.25;;
26696;SDS011;14312;52.614;13.496;2022-11-20T13:20:56;8.10;;;7.20;;
26696;SDS011;14312;52.614;13.496;2022-11-20T13:23:42;8.85;;;7.30;;
26696;SDS011;14312;52.614;13.496;2022-11-20T13:26:28;9.97;;;7.67;;
26696;SDS011;14312;52.614;13.496;2022-11-20T13:29:18;9.10;;;7.75;;
26696;SDS011;14312;52.614;13.496;2022-11-20T13:32:26;9.20;;;7.47;;
26696;SDS011;14312;52.614;13.496;2022-11-20T13:35:11;8.67;;;7.50;;
26696;SDS011;14312;52.614;13.496;2022-11-20T13:38:02;8.30;;;7.23;;
26696;SDS011;14312;52.614;13.496;2022-11-20T13:40:58;7.20;;;6.47;;
26696;SDS011;14312;52.614;13.496;2022-11-20T13:44:09;9.87;;;7.43;;
26696;SDS011;14312;52.614;13.496;2022-11-20T13:46:59;7.87;;;6.83;;
26696;SDS011;14312;52.614;13.496;2022-11-20T13:49:45;7.33;;;6.47;;
26696;SDS011;14312;52.614;13.496;2022-11-20T13:52:35;7.60;;;5.97;;
26696;SDS011;14312;52.614;13.496;2022-11-20T13:55:47;9.20;;;6.53;;
26696;SDS011;14312;52.614;13.496;2022-11-20T13:58:50;9.03;;;7.27;;
26696;SDS011;14312;52.614;13.496;2022-11-20T14:01:38;8.50;;;7.28;;
26696;SDS011;14312;52.614;13.496;2022-11-20T14:04:33;8.83;;;7.13;;
26696;SDS011;14312;52.614;13.496;2022-11-20T14:07:21;7.63;;;6.40;;
26696;SDS011;14312;52.614;13.496;2022-11-20T14:10:22;7.17;;;6.20;;
26696;SDS011;14312;52.614;13.496;2022-11-20T14:13:11;7.23;;;6.10;;
26696;SDS011;14312;52.614;13.496;2022-11-20T14:16:03;6.90;;;6.17;;
26696;SDS011;14312;52.614;13.496;2022-11-20T14:18:49;8.17;;;6.67;;
26696;SDS011;14312;52.614;13.496;2022-11-20T14:21:35;7.43;;;6.33;;
26696;SDS011;14312;52.614;13.496;2022-11-20T14:24:21;6.87;;;5.67;;
26696;SDS011;14312;52.614;13.496;2022-11-20T14:27:13;6.73;;;6.03;;
26696;SDS011;14312;52.614;13.496;2022-11-20T14:30:05;6.70;;;6.00;;
26696;SDS011;14312;52.614;13.496;2022-11-20T14:33:01;8.00;;;6.20;;
26696;SDS011;14312;52.614;13.496;2022-11-20T14:35:49;8.40;;;7.07;;
26696;SDS011;14312;52.614;13.496;2022-11-20T14:38:37;8.23;;;7.13;;
26696;SDS011;14312;52.614;13.496;2022-11-20T14:41:27;9.80;;;7.27;;
26696;SDS011;14312;52.614;13.496;2022-11-20T14:44:14;7.43;;;6.73;;
26696;SDS011;14312;52.614;13.496;2022-11-20T14:47:00;8.13;;;6.73;;
26696;SDS011;14312;52.614;13.496;2022-11-20T14:49:49;9.43;;;7.85;;
26696;SDS011;14312;52.614;13.496;2022-11-20T14:52:36;8.27;;;6.60;;
26696;SDS011;14312;52.614;13.496;2022-11-20T14:55:35;9.63;;;7.90;;
26696;SDS011;14312;52.614;13.496;2022-11-20T14:58:24;8.90;;;7.75;;
26696;SDS011;14312;52.614;13.496;2022-11-20T15:01:12;10.13;;;8.27;;
26696;SDS011;14312;52.614;13.496;2022-11-20T15:04:07;9.17;;;7.80;;
26696;SDS011;14312;52.614;13.496;2022-11-20T15:06:56;9.87;;;8.23;;
26696;SDS011;14312;52.614;13.496;2022-11-20T15:09:43;8.20;;;6.87;;
26696;SDS011;14312;52.614;13.496;2022-11-20T15:12:30;8.83;;;7.07;;
26696;SDS011;14312;52.614;13.496;2022-11-20T15:15:23;8.17;;;6.27;;
26696;SDS011;14312;52.614;13.496;2022-11-20T15:18:19;9.17;;;7.53;;
26696;SDS011;14312;52.614;13.496;2022-11-20T15:21:12;8.07;;;7.07;;
26696;SDS011;14312;52.614;13.496;2022-11-20T15:23:59;9.30;;;7.70;;
26696;SDS011;14312;52.614;13.496;2022-11-20T15:26:46;12.27;;;9.67;;
26696;SDS011;14312;52.614;13.496;2022-11-20T15:29:33;12.23;;;9.83;;
26696;SDS011;14312;52.614;13.496;2022-11-20T15:32:23;12.03;;;9.93;;
26696;SDS011;14312;52.614;13.496;2022-11-20T15:35:09;11.70;;;9.13;;
26696;SDS011;14312;52.614;13.496;2022-11-20T15:37:55;13.77;;;10.50;;
26696;SDS011;14312;52.614;13.496;2022-11-20T15:40:41;12.50;;;8.80;;
26696;SDS011;14312;52.614;13.496;2022-11-20T15:43:27;10.30;;;8.43;;
26696;SDS011;14312;52.614;13.496;2022-11-20T15:46:15;11.70;;;8.43;;
26696;SDS011;14312;52.614;13.496;2022-11-20T15:49:06;8.47;;;7.27;;
26696;SDS011;14312;52.614;13.496;2022-11-20T15:51:57;11.33;;;8.90;;
26696;SDS011;14312;52.614;13.496;2022-11-20T15:54:43;9.00;;;7.77;;
26696;SDS011;14312;52.614;13.496;2022-11-20T15:57:29;9.73;;;7.37;;
26696;SDS011;14312;52.614;13.496;2022-11-20T16:00:15;8.60;;;7.33;;
26696;SDS011;14312;52.614;13.496;2022-11-20T16:03:01;7.53;;;6.73;;
26696;SDS011;14312;52.614;13.496;2022-11-20T16:05:47;7.87;;;6.70;;
26696;SDS011;14312;52.614;13.496;2022-11-20T16:08:33;9.83;;;7.20;;
26696;SDS011;14312;52.614;13.496;2022-11-20T16:11:22;10.27;;;8.57;;
26696;SDS011;14312;52.614;13.496;2022-11-20T16:14:13;8.03;;;6.97;;
26696;SDS011;14312;52.614;13.496;2022-11-20T16:17:17;8.60;;;6.83;;
26696;SDS011;14312;52.614;13.496;2022-11-20T16:20:23;9.03;;;7.07;;
26696;SDS011;14312;52.614;13.496;2022-11-20T16:23:09;8.53;;;7.10;;
26696;SDS011;14312;52.614;13.496;2022-11-20T16:25:55;8.30;;;7.37;;
26696;SDS011;14312;52.614;13.496;2022-11-20T16:28:40;8.10;;;6.97;;
26696;SDS011;14312;52.614;13.496;2022-11-20T16:31:26;8.13;;;6.73;;
26696;SDS011;14312;52.614;13.496;2022-11-20T16:34:12;8.00;;;7.20;;
26696;SDS011;14312;52.614;13.496;2022-11-20T16:37:04;8.57;;;7.20;;
26696;SDS011;14312;52.614;13.496;2022-11-20T16:39:49;8.83;;;7.57;;
26696;SDS011;14312;52.614;13.496;2022-11-20T16:42:36;9.30;;;7.00;;
26696;SDS011;14312;52.614;13.496;2022-11-20T16:45:23;7.72;;;6.80;;
26696;SDS011;14312;52.614;13.496;2022-11-20T16:48:11;7.83;;;6.33;;
26696;SDS011;14312;52.614;13.496;2022-11-20T16:51:02;7.93;;;6.13;;
26696;SDS011;14312;52.614;13.496;2022-11-20T16:53:48;7.18;;;5.90;;
26696;SDS011;14312;52.614;13.496;2022-11-20T16:56:35;7.87;;;6.57;;
26696;SDS011;14312;52.614;13.496;2022-11-20T16:59:21;9.10;;;7.40;;
26696;SDS011;14312;52.614;13.496;2022-11-20T17:02:08;9.50;;;7.70;;
26696;SDS011;14312;52.614;13.496;2022-11-20T17:04:55;8.47;;;7.00;;
26696;SDS011;14312;52.614;13.496;2022-11-20T17:07:40;9.23;;;6.73;;
26696;SDS011;14312;52.614;13.496;2022-11-20T17:10:26;8.50;;;6.63;;
26696;SDS011;14312;52.614;13.496;2022-11-20T17:13:12;9.02;;;6.82;;
26696;SDS011;14312;52.614;13.496;2022-11-20T17:16:04;9.43;;;8.02;;
26696;SDS011;14312;52.614;13.496;2022-11-20T17:18:55;9.48;;;7.70;;
26696;SDS011;14312;52.614;13.496;2022-11-20T17:21:42;10.27;;;7.20;;
26696;SDS011;14312;52.614;13.496;2022-11-20T17:24:28;8.63;;;7.33;;
26696;SDS011;14312;52.614;13.496;2022-11-20T17:27:14;9.53;;;7.33;;
26696;SDS011;14312;52.614;13.496;2022-11-20T17:30:00;9.90;;;8.23;;
26696;SDS011;14312;52.614;13.496;2022-11-20T17:32:45;7.77;;;6.97;;
26696;SDS011;14312;52.614;13.496;2022-11-20T17:35:34;10.47;;;8.17;;
26696;SDS011;14312;52.614;13.496;2022-11-20T17:38:21;8.90;;;7.93;;
26696;SDS011;14312;52.614;13.496;2022-11-20T17:41:11;8.93;;;7.00;;
26696;SDS011;14312;52.614;13.496;2022-11-20T17:44:01;8.67;;;6.70;;
26696;SDS011;14312;52.614;13.496;2022-11-20T17:46:47;7.53;;;5.90;;
26696;SDS011;14312;52.614;13.496;2022-11-20T17:49:33;7.40;;;6.60;;
26696;SDS011;14312;52.614;13.496;2022-11-20T17:52:18;7.27;;;6.40;;
26696;SDS011;14312;52.614;13.496;2022-11-20T17:55:05;8.97;;;7.23;;
26696;SDS011;14312;52.614;13.496;2022-11-20T17:57:51;8.83;;;6.70;;
26696;SDS011;14312;52.614;13.496;2022-11-20T18:00:37;9.33;;;7.17;;
26696;SDS011;14312;52.614;13.496;2022-11-20T18:03:23;8.83;;;7.60;;
26696;SDS011;14312;52.614;13.496;2022-11-20T18:08:57;7.33;;;6.40;;
26696;SDS011;14312;52.614;13.496;2022-11-20T18:11:48;8.97;;;7.17;;
26696;SDS011;14312;52.614;13.496;2022-11-20T18:14:34;7.53;;;5.85;;
26696;SDS011;14312;52.614;13.496;2022-11-20T18:17:23;7.77;;;6.23;;
26696;SDS011;14312;52.614;13.496;2022-11-20T18:20:09;8.20;;;7.00;;
26696;SDS011;14312;52.614;13.496;2022-11-20T18:22:56;8.63;;;6.50;;
26696;SDS011;14312;52.614;13.496;2022-11-20T18:25:42;10.90;;;8.40;;
26696;SDS011;14312;52.614;13.496;2022-11-20T18:28:28;11.93;;;9.75;;
26696;SDS011;14312;52.614;13.496;2022-11-20T18:31:14;10.40;;;8.23;;
26696;SDS011;14312;52.614;13.496;2022-11-20T18:34:00;8.13;;;6.63;;
26696;SDS011;14312;52.614;13.496;2022-11-20T18:36:46;8.20;;;7.13;;
26696;SDS011;14312;52.614;13.496;2022-11-20T18:39:32;9.57;;;7.90;;
26696;SDS011;14312;52.614;13.496;2022-11-20T18:42:18;9.00;;;6.83;;
26696;SDS011;14312;52.614;13.496;2022-11-20T18:45:23;9.57;;;7.33;;
26696;SDS011;14312;52.614;13.496;2022-11-20T18:48:08;10.70;;;8.53;;
26696;SDS011;14312;52.614;13.496;2022-11-20T18:50:54;10.17;;;8.17;;
26696;SDS011;14312;52.614;13.496;2022-11-20T18:53:48;9.70;;;7.30;;
26696;SDS011;14312;52.614;13.496;2022-11-20T18:56:34;9.33;;;7.40;;
26696;SDS011;14312;52.614;13.496;2022-11-20T18:59:20;9.27;;;7.60;;
26696;SDS011;14312;52.614;13.496;2022-11-20T19:02:07;8.10;;;7.10;;
26696;SDS011;14312;52.614;13.496;2022-11-20T19:04:55;8.70;;;7.27;;
26696;SDS011;14312;52.614;13.496;2022-11-20T19:07:41;8.73;;;7.23;;
26696;SDS011;14312;52.614;13.496;2022-11-20T19:10:27;9.53;;;7.87;;
26696;SDS011;14312;52.614;13.496;2022-11-20T19:13:18;9.20;;;7.60;;
26696;SDS011;14312;52.614;13.496;2022-11-20T19:16:04;8.27;;;7.30;;
26696;SDS011;14312;52.614;13.496;2022-11-20T19:18:52;10.10;;;8.27;;
26696;SDS011;14312;52.614;13.496;2022-11-20T19:21:38;9.23;;;7.57;;
26696;SDS011;14312;52.614;13.496;2022-11-20T19:24:25;9.60;;;7.30;;
26696;SDS011;14312;52.614;13.496;2022-11-20T19:27:14;9.80;;;7.35;;
26696;SDS011;14312;52.614;13.496;2022-11-20T19:30:00;10.20;;;7.27;;
26696;SDS011;14312;52.614;13.496;2022-11-20T19:32:47;8.50;;;6.60;;
26696;SDS011;14312;52.614;13.496;2022-11-20T19:35:35;7.03;;;6.20;;
26696;SDS011;14312;52.614;13.496;2022-11-20T19:38:21;8.20;;;6.40;;
26696;SDS011;14312;52.614;13.496;2022-11-20T19:41:07;8.03;;;6.00;;
26696;SDS011;14312;52.614;13.496;2022-11-20T19:46:55;7.93;;;5.73;;
26696;SDS011;14312;52.614;13.496;2022-11-20T19:49:44;8.23;;;7.30;;
26696;SDS011;14312;52.614;13.496;2022-11-20T19:52:30;8.80;;;7.30;;
26696;SDS011;14312;52.614;13.496;2022-11-20T19:55:15;9.10;;;7.03;;
26696;SDS011;14312;52.614;13.496;2022-11-20T19:58:02;7.90;;;7.10;;
26696;SDS011;14312;52.614;13.496;2022-11-20T20:00:48;9.53;;;6.83;;
26696;SDS011;14312;52.614;13.496;2022-11-20T20:03:33;10.70;;;8.17;;
26696;SDS011;14312;52.614;13.496;2022-11-20T20:06:21;10.10;;;8.33;;
26696;SDS011;14312;52.614;13.496;2022-11-20T20:09:10;10.40;;;8.90;;
26696;SDS011;14312;52.614;13.496;2022-11-20T20:11:57;8.70;;;7.80;;
26696;SDS011;14312;52.614;13.496;2022-11-20T20:14:48;10.23;;;7.30;;
26696;SDS011;14312;52.614;13.496;2022-11-20T20:17:35;9.10;;;6.80;;
26696;SDS011;14312;52.614;13.496;2022-11-20T20:20:22;7.23;;;6.47;;
26696;SDS011;14312;52.614;13.496;2022-11-20T20:23:08;8.93;;;7.00;;
26696;SDS011;14312;52.614;13.496;2022-11-20T20:25:54;9.80;;;7.10;;
26696;SDS011;14312;52.614;13.496;2022-11-20T20:28:40;8.70;;;6.77;;
26696;SDS011;14312;52.614;13.496;2022-11-20T20:31:27;8.37;;;6.57;;
26696;SDS011;14312;52.614;13.496;2022-11-20T20:34:14;8.63;;;7.73;;
26696;SDS011;14312;52.614;13.496;2022-11-20T20:37:00;8.00;;;6.93;;
26696;SDS011;14312;52.614;13.496;2022-11-20T20:39:48;7.33;;;6.33;;
26696;SDS011;14312;52.614;13.496;2022-11-20T20:42:35;8.63;;;6.43;;
26696;SDS011;14312;52.614;13.496;2022-11-20T20:45:21;8.47;;;6.67;;
26696;SDS011;14312;52.614;13.496;2022-11-20T20:48:07;8.40;;;6.90;;
26696;SDS011;14312;52.614;13.496;2022-11-20T20:50:59;10.07;;;7.63;;
26696;SDS011;14312;52.614;13.496;2022-11-20T20:53:47;8.43;;;7.00;;
26696;SDS011;14312;52.614;13.496;2022-11-20T20:56:35;9.53;;;7.37;;
26696;SDS011;14312;52.614;13.496;2022-11-20T20:59:21;10.20;;;8.13;;
26696;SDS011;14312;52.614;13.496;2022-11-20T21:02:07;9.50;;;7.70;;
26696;SDS011;14312;52.614;13.496;2022-11-20T21:04:55;9.93;;;8.23;;
26696;SDS011;14312;52.614;13.496;2022-11-20T21:07:41;7.60;;;6.60;;
26696;SDS011;14312;52.614;13.496;2022-11-20T21:10:50;7.20;;;6.17;;
26696;SDS011;14312;52.614;13.496;2022-11-20T21:13:38;6.23;;;5.60;;
26696;SDS011;14312;52.614;13.496;2022-11-20T21:16:25;6.50;;;5.33;;
26696;SDS011;14312;52.614;13.496;2022-11-20T21:19:11;6.57;;;5.40;;
26696;SDS011;14312;52.614;13.496;2022-11-20T21:21:57;5.80;;;4.83;;
26696;SDS011;14312;52.614;13.496;2022-11-20T21:24:49;6.17;;;4.53;;
26696;SDS011;14312;52.614;13.496;2022-11-20T21:27:35;5.03;;;4.20;;
26696;SDS011;14312;52.614;13.496;2022-11-20T21:30:20;5.73;;;4.53;;
26696;SDS011;14312;52.614;13.496;2022-11-20T21:33:06;5.07;;;4.30;;
26696;SDS011;14312;52.614;13.496;2022-11-20T21:35:52;5.83;;;5.20;;
26696;SDS011;14312;52.614;13.496;2022-11-20T21:38:38;5.67;;;4.37;;
26696;SDS011;14312;52.614;13.496;2022-11-20T21:41:26;6.30;;;5.37;;
26696;SDS011;14312;52.614;13.496;2022-11-20T21:44:13;5.93;;;5.33;;
26696;SDS011;14312;52.614;13.496;2022-11-20T21:46:59;6.47;;;5.50;;
26696;SDS011;14312;52.614;13.496;2022-11-20T21:49:45;7.73;;;5.93;;
26696;SDS011;14312;52.614;13.496;2022-11-20T21:52:31;8.80;;;6.77;;
26696;SDS011;14312;52.614;13.496;2022-11-20T21:55:17;8.47;;;6.60;;
26696;SDS011;14312;52.614;13.496;2022-11-20T21:58:03;8.83;;;6.13;;
26696;SDS011;14312;52.614;13.496;2022-11-20T22:00:54;7.30;;;5.63;;
26696;SDS011;14312;52.614;13.496;2022-11-20T22:03:40;6.27;;;5.47;;
26696;SDS011;14312;52.614;13.496;2022-11-20T22:06:30;7.30;;;5.27;;
26696;SDS011;14312;52.614;13.496;2022-11-20T22:09:19;5.80;;;5.20;;
26696;SDS011;14312;52.614;13.496;2022-11-20T22:12:05;5.17;;;4.43;;
26696;SDS011;14312;52.614;13.496;2022-11-20T22:14:51;5.60;;;4.90;;
26696;SDS011;14312;52.614;13.496;2022-11-20T22:17:36;5.37;;;4.27;;
26696;SDS011;14312;52.614;13.496;2022-11-20T22:20:41;5.50;;;4.43;;
26696;SDS011;14312;52.614;13.496;2022-11-20T22:23:26;6.67;;;5.30;;
26696;SDS011;14312;52.614;13.496;2022-11-20T22:26:13;4.97;;;4.30;;
26696;SDS011;14312;52.614;13.496;2022-11-20T22:29:01;5.43;;;4.70;;
26696;SDS011;14312;52.614;13.496;2022-11-20T22:31:49;6.30;;;4.77;;
26696;SDS011;14312;52.614;13.496;2022-11-20T22:34:36;5.17;;;4.43;;
26696;SDS011;14312;52.614;13.496;2022-11-20T22:37:22;5.30;;;4.77;;
26696;SDS011;14312;52.614;13.496;2022-11-20T22:40:11;6.30;;;5.50;;
26696;SDS011;14312;52.614;13.496;2022-11-20T22:42:57;8.97;;;6.60;;
26696;SDS011;14312;52.614;13.496;2022-11-20T22:45:43;9.50;;;7.80;;
26696;SDS011;14312;52.614;13.496;2022-11-20T22:48:30;10.13;;;8.23;;
26696;SDS011;14312;52.614;13.496;2022-11-20T22:51:18;11.37;;;8.97;;
26696;SDS011;14312;52.614;13.496;2022-11-20T22:54:05;9.73;;;7.50;;
26696;SDS011;14312;52.614;13.496;2022-11-20T22:56:52;10.10;;;7.33;;
26696;SDS011;14312;52.614;13.496;2022-11-20T22:59:43;8.57;;;6.90;;
26696;SDS011;14312;52.614;13.496;2022-11-20T23:02:31;7.83;;;6.40;;
26696;SDS011;14312;52.614;13.496;2022-11-20T23:05:16;6.10;;;5.17;;
26696;SDS011;14312;52.614;13.496;2022-11-20T23:08:02;5.87;;;4.97;;
26696;SDS011;14312;52.614;13.496;2022-11-20T23:10:48;6.07;;;5.17;;
26696;SDS011;14312;52.614;13.496;2022-11-20T23:13:34;8.87;;;7.13;;
